Horlivka, Ukraine
Current Conditions -  °F | °C
As of 7:30 AM on Saturday 20 Dec 2014 (Local Time) from URRR Reporting Station
Haze Haze  
Wind Chill: 25°   Ceiling: 300
Heat Index: 34°   Visibility: 1.3mi
Dew Point: 34°   Wind: 11mph
Humidity: 100%   Direction: 230°SW
Pressure: 30.06"   Gusts: NA
Location:  48.3°N, 38.05°E
Report Text: URRR 200430Z 23005MPS 2200 BR OVC003 01/01 Q1018 22110060 TEMPO0400 FG OVC002 RMK QBB090 MAST OBSC
Loading
Personal Weather Stations






























Interactive Weather Map New forecast layout! Learn more

10-Day Weather Forecast

Advertisements
Track Severe Weather on mobile